createdAt,value
2018-03-30T00:01:35.550Z,99.90
2018-03-30T00:04:03.887Z,99.90
2018-03-30T00:06:32.229Z,99.90
2018-03-30T00:09:00.581Z,99.90
2018-03-30T00:11:29.081Z,99.90
2018-03-30T00:13:57.536Z,99.90
2018-03-30T00:16:25.945Z,99.90
2018-03-30T00:18:54.309Z,99.90
2018-03-30T00:21:22.670Z,99.90
2018-03-30T00:23:51.036Z,99.90
2018-03-30T00:26:19.453Z,99.90
2018-03-30T00:28:47.816Z,99.90
2018-03-30T00:31:16.195Z,99.90
2018-03-30T00:33:44.545Z,99.90
2018-03-30T00:36:12.901Z,99.90
2018-03-30T00:38:42.008Z,99.90
2018-03-30T00:41:10.371Z,99.90
2018-03-30T00:43:39.518Z,99.90
2018-03-30T00:46:07.929Z,99.90
2018-03-30T00:48:37.308Z,99.90
2018-03-30T00:51:05.632Z,99.90
2018-03-30T00:53:41.613Z,99.90
2018-03-30T00:56:10.036Z,99.90
2018-03-30T00:58:38.497Z,99.90
2018-03-30T01:01:06.839Z,99.90
2018-03-30T01:03:36.077Z,99.90
2018-03-30T01:06:04.420Z,99.90
2018-03-30T01:08:33.608Z,99.90
2018-03-30T01:11:08.533Z,99.90
2018-03-30T01:13:36.897Z,99.90
2018-03-30T01:16:05.231Z,99.90
2018-03-30T01:18:33.595Z,99.90
2018-03-30T01:21:02.056Z,99.90
2018-03-30T01:23:30.523Z,99.90
2018-03-30T01:25:58.864Z,99.90
2018-03-30T01:28:27.233Z,99.90
2018-03-30T01:30:55.592Z,99.90
2018-03-30T01:33:23.944Z,99.90
2018-03-30T01:35:52.301Z,99.90
2018-03-30T01:38:20.759Z,99.90
2018-03-30T01:40:49.124Z,99.90
2018-03-30T01:43:17.507Z,99.90
2018-03-30T01:45:45.859Z,99.90
2018-03-30T01:48:14.985Z,99.90
2018-03-30T01:50:43.335Z,99.90
2018-03-30T01:53:12.454Z,99.90
2018-03-30T01:55:40.811Z,99.90
2018-03-30T01:58:09.982Z,99.90
2018-03-30T02:00:38.329Z,99.90
2018-03-30T02:03:06.669Z,99.90
2018-03-30T02:05:35.028Z,99.90
2018-03-30T02:08:04.142Z,99.90
2018-03-30T02:10:32.544Z,99.90
2018-03-30T02:13:00.889Z,99.90
2018-03-30T02:15:30.015Z,99.90
2018-03-30T02:17:58.361Z,99.90
2018-03-30T02:20:27.499Z,99.90
2018-03-30T02:22:55.888Z,99.90
2018-03-30T02:25:24.218Z,99.90
2018-03-30T02:27:53.513Z,99.90
2018-03-30T02:30:21.857Z,99.90
2018-03-30T02:32:50.200Z,99.90
2018-03-30T02:35:18.551Z,99.90
2018-03-30T02:37:46.987Z,99.90
2018-03-30T02:40:16.217Z,99.90
2018-03-30T02:42:44.675Z,99.90
2018-03-30T02:45:13.010Z,99.90
2018-03-30T02:47:41.538Z,99.90
2018-03-30T02:50:10.013Z,99.90
2018-03-30T02:52:38.342Z,99.90
2018-03-30T02:55:06.720Z,99.90
2018-03-30T02:57:35.233Z,99.90
2018-03-30T03:00:03.554Z,99.90
2018-03-30T03:02:31.892Z,99.90
2018-03-30T03:05:00.251Z,99.90
2018-03-30T03:07:28.661Z,99.90
2018-03-30T03:09:56.987Z,99.90
2018-03-30T03:12:25.503Z,99.90
2018-03-30T03:14:53.975Z,99.90
2018-03-30T03:17:23.071Z,99.90
2018-03-30T03:19:51.645Z,99.90
2018-03-30T03:22:20.744Z,99.90
2018-03-30T03:24:49.128Z,99.90
2018-03-30T03:27:18.239Z,99.90
2018-03-30T03:29:46.584Z,99.90
2018-03-30T03:32:15.013Z,99.90
2018-03-30T03:34:43.390Z,99.90
2018-03-30T03:37:11.742Z,99.90
2018-03-30T03:39:40.852Z,99.90
2018-03-30T03:42:10.198Z,99.90
2018-03-30T03:44:38.538Z,99.90
2018-03-30T03:47:06.893Z,99.90
2018-03-30T03:49:35.236Z,99.90
2018-03-30T03:52:03.604Z,99.90
2018-03-30T03:54:32.081Z,99.90
2018-03-30T03:57:00.433Z,99.90
2018-03-30T03:59:28.780Z,99.90
2018-03-30T04:01:57.885Z,99.90
2018-03-30T04:04:26.992Z,99.90
2018-03-30T04:06:55.368Z,99.90
2018-03-30T04:09:23.871Z,99.90
2018-03-30T04:11:52.347Z,99.90
2018-03-30T04:14:20.697Z,99.90
2018-03-30T04:16:49.848Z,99.90
2018-03-30T04:19:18.173Z,99.90
2018-03-30T04:21:47.341Z,99.90
2018-03-30T04:24:15.709Z,99.90
2018-03-30T04:26:44.055Z,99.90
2018-03-30T04:29:13.296Z,99.90
2018-03-30T04:31:41.657Z,99.90
2018-03-30T04:34:10.004Z,99.90
2018-03-30T04:36:38.402Z,99.90
2018-03-30T04:39:06.731Z,99.90
2018-03-30T04:41:35.187Z,99.90
2018-03-30T04:44:03.534Z,99.90
2018-03-30T04:46:31.905Z,99.90
2018-03-30T04:49:00.709Z,99.90
2018-03-30T04:51:29.052Z,99.90
2018-03-30T04:53:58.168Z,99.90
2018-03-30T04:56:26.539Z,99.90
2018-03-30T04:58:55.662Z,99.90
2018-03-30T05:01:24.003Z,99.90
2018-03-30T05:03:53.133Z,99.90
2018-03-30T05:06:21.507Z,99.90
2018-03-30T05:08:49.884Z,99.90
2018-03-30T05:11:18.263Z,99.90
2018-03-30T05:13:46.624Z,99.90
2018-03-30T05:16:15.760Z,99.90
2018-03-30T05:18:44.112Z,99.90
2018-03-30T05:21:12.556Z,99.90
2018-03-30T05:23:40.904Z,99.90
2018-03-30T05:26:09.359Z,99.90
2018-03-30T05:28:37.738Z,99.90
2018-03-30T05:31:06.305Z,99.90
2018-03-30T05:33:35.477Z,99.90
2018-03-30T05:36:03.920Z,99.90
2018-03-30T05:38:32.274Z,99.90
2018-03-30T05:41:00.742Z,99.90
2018-03-30T05:43:29.184Z,99.90
2018-03-30T05:45:57.623Z,99.90
2018-03-30T05:48:25.979Z,99.90
2018-03-30T05:50:55.124Z,99.90
2018-03-30T05:53:23.456Z,99.90
2018-03-30T05:55:52.579Z,99.90
2018-03-30T05:58:20.975Z,99.90
2018-03-30T06:00:49.346Z,99.90
2018-03-30T06:03:17.688Z,99.90
2018-03-30T06:05:46.800Z,99.90
2018-03-30T06:08:15.208Z,99.90
2018-03-30T06:10:43.584Z,99.90
2018-03-30T06:13:11.933Z,99.90
2018-03-30T06:15:40.533Z,99.90
2018-03-30T06:18:08.901Z,99.90
2018-03-30T06:20:37.295Z,99.90
2018-03-30T06:23:05.642Z,99.90
2018-03-30T06:25:34.779Z,99.90
2018-03-30T06:28:03.115Z,99.90
2018-03-30T06:30:32.221Z,99.90
2018-03-30T06:33:00.567Z,99.90
2018-03-30T06:35:28.967Z,99.90
2018-03-30T06:37:58.071Z,99.90
2018-03-30T06:40:26.429Z,99.90
2018-03-30T06:42:54.857Z,99.90
2018-03-30T06:45:23.346Z,99.90
2018-03-30T06:47:51.817Z,99.90
2018-03-30T06:50:20.169Z,99.90
2018-03-30T06:52:48.585Z,99.90
2018-03-30T06:55:16.962Z,99.90
2018-03-30T06:57:45.361Z,99.90
2018-03-30T07:00:13.708Z,99.90
2018-03-30T07:02:42.748Z,99.90
2018-03-30T07:05:11.234Z,99.90
2018-03-30T07:07:39.632Z,99.90
2018-03-30T07:10:07.972Z,99.90
2018-03-30T07:12:36.322Z,99.90
2018-03-30T07:15:04.709Z,99.90
2018-03-30T07:17:33.055Z,99.90
2018-03-30T07:20:02.199Z,99.90
2018-03-30T07:22:30.611Z,99.90
2018-03-30T07:24:58.913Z,99.90
2018-03-30T07:27:28.052Z,99.90
2018-03-30T07:29:56.477Z,99.90
2018-03-30T07:32:24.829Z,99.90
2018-03-30T07:34:53.207Z,99.90
2018-03-30T07:37:21.679Z,99.90
2018-03-30T07:39:50.021Z,99.90
2018-03-30T07:42:18.455Z,99.90
2018-03-30T07:44:47.628Z,99.90
2018-03-30T07:47:15.990Z,99.90
2018-03-30T07:49:44.338Z,99.90
2018-03-30T07:52:12.832Z,99.90
2018-03-30T07:54:41.932Z,99.90
2018-03-30T07:57:10.341Z,99.90
2018-03-30T07:59:38.831Z,99.90
2018-03-30T08:02:07.234Z,99.90
2018-03-30T08:04:35.604Z,99.90
2018-03-30T08:07:03.949Z,99.90
2018-03-30T08:09:32.431Z,99.90
2018-03-30T08:12:00.801Z,99.90
2018-03-30T08:14:29.166Z,99.90
2018-03-30T08:16:58.276Z,99.90
2018-03-30T08:19:26.619Z,99.90
2018-03-30T08:21:54.989Z,99.90
2018-03-30T08:24:23.332Z,99.90
2018-03-30T08:26:51.684Z,99.90
2018-03-30T08:29:20.046Z,99.90
2018-03-30T08:31:49.403Z,99.90
2018-03-30T08:34:17.744Z,99.90
2018-03-30T08:36:46.281Z,99.90
2018-03-30T08:39:14.617Z,99.10
2018-03-30T08:41:43.009Z,98.80
2018-03-30T08:44:11.361Z,98.30
2018-03-30T08:46:39.841Z,97.90
2018-03-30T08:49:08.204Z,97.60
2018-03-30T08:51:36.571Z,97.30
2018-03-30T08:54:05.081Z,96.80
2018-03-30T08:56:34.213Z,96.80
2018-03-30T08:59:02.551Z,96.80
2018-03-30T09:01:31.702Z,96.20
2018-03-30T09:04:00.070Z,96.20
2018-03-30T09:06:28.436Z,95.10
2018-03-30T09:08:56.818Z,94.60
2018-03-30T09:11:25.180Z,94.50
2018-03-30T09:13:53.532Z,94.40
2018-03-30T09:16:22.200Z,93.70
2018-03-30T09:18:50.633Z,93.20
2018-03-30T09:21:19.756Z,93.20
2018-03-30T09:23:48.174Z,92.80
2018-03-30T09:26:16.593Z,92.30
2018-03-30T09:28:44.988Z,91.90
2018-03-30T09:31:13.365Z,91.60
2018-03-30T09:33:41.723Z,90.00
2018-03-30T09:36:10.167Z,89.70
2018-03-30T09:38:38.580Z,88.10
2018-03-30T09:41:06.951Z,87.40
2018-03-30T09:43:35.462Z,86.70
2018-03-30T09:46:03.851Z,83.20
2018-03-30T09:48:32.891Z,81.80
2018-03-30T09:51:01.281Z,82.20
2018-03-30T09:53:30.608Z,79.90
2018-03-30T09:55:58.967Z,79.80
2018-03-30T09:58:27.356Z,78.10
2018-03-30T10:03:51.538Z,77.80
2018-03-30T10:06:20.685Z,73.60
2018-03-30T10:08:49.060Z,73.90
2018-03-30T10:11:17.451Z,72.20
2018-03-30T10:13:45.823Z,69.60
2018-03-30T10:16:14.610Z,72.60
2018-03-30T10:18:42.955Z,73.40
2018-03-30T10:21:11.312Z,72.40
2018-03-30T10:23:39.835Z,70.80
2018-03-30T10:26:08.205Z,71.20
2018-03-30T10:28:36.605Z,68.00
2018-03-30T10:31:05.089Z,70.50
2018-03-30T10:33:33.568Z,70.80
2018-03-30T10:36:02.112Z,67.00
2018-03-30T10:38:30.407Z,67.10
2018-03-30T10:40:58.787Z,62.60
2018-03-30T10:43:27.152Z,65.00
2018-03-30T10:45:55.514Z,59.80
2018-03-30T10:48:24.645Z,60.90
2018-03-30T10:50:53.024Z,60.60
2018-03-30T10:53:21.416Z,64.00
2018-03-30T10:55:49.809Z,61.20
2018-03-30T10:58:18.455Z,59.60
2018-03-30T11:00:46.908Z,59.30
2018-03-30T11:03:15.253Z,58.10
2018-03-30T11:05:43.620Z,60.40
2018-03-30T11:08:12.003Z,61.50
2018-03-30T11:10:40.581Z,61.40
2018-03-30T11:13:08.997Z,59.60
2018-03-30T11:15:37.417Z,58.70
2018-03-30T11:18:05.779Z,58.60
2018-03-30T11:20:34.901Z,53.20
2018-03-30T11:23:03.291Z,52.90
2018-03-30T11:25:31.851Z,53.50
2018-03-30T11:28:00.972Z,50.90
2018-03-30T11:30:30.115Z,50.90
2018-03-30T11:32:58.586Z,51.80
2018-03-30T11:35:26.927Z,52.40
2018-03-30T11:37:55.267Z,50.80
2018-03-30T11:40:24.423Z,52.50
2018-03-30T11:42:52.780Z,52.00
2018-03-30T11:45:21.133Z,53.90
2018-03-30T11:47:50.252Z,55.60
2018-03-30T11:50:18.673Z,55.40
2018-03-30T11:52:47.133Z,50.10
2018-03-30T11:55:16.374Z,51.90
2018-03-30T11:57:44.873Z,50.20
2018-03-30T12:00:14.013Z,50.30
2018-03-30T12:02:42.385Z,50.30
2018-03-30T12:05:10.930Z,51.30
2018-03-30T12:07:39.350Z,49.60
2018-03-30T12:10:07.746Z,48.90
2018-03-30T12:12:36.207Z,46.90
2018-03-30T12:15:04.584Z,46.30
2018-03-30T12:17:32.947Z,47.80
2018-03-30T12:20:01.364Z,46.40
2018-03-30T12:22:29.718Z,45.40
2018-03-30T12:24:58.059Z,46.80
2018-03-30T12:27:27.199Z,46.20
2018-03-30T12:29:55.563Z,46.10
2018-03-30T12:32:23.976Z,46.60
2018-03-30T12:34:52.393Z,49.30
2018-03-30T12:37:21.127Z,46.60
2018-03-30T12:39:49.615Z,43.60
2018-03-30T12:42:18.139Z,44.70
2018-03-30T12:44:46.535Z,44.30
2018-03-30T12:47:15.682Z,45.70
2018-03-30T12:49:44.157Z,45.50
2018-03-30T12:52:12.522Z,45.80
2018-03-30T12:54:40.905Z,46.70
2018-03-30T12:57:09.267Z,48.30
2018-03-30T12:59:37.673Z,47.60
2018-03-30T13:02:06.022Z,47.80
2018-03-30T13:04:34.401Z,47.40
2018-03-30T13:07:02.916Z,48.60
2018-03-30T13:09:31.259Z,48.80
2018-03-30T13:12:00.389Z,47.50
2018-03-30T13:14:28.780Z,47.60
2018-03-30T13:16:57.132Z,45.90
2018-03-30T13:19:25.496Z,47.70
2018-03-30T13:21:54.619Z,50.60
2018-03-30T13:24:22.992Z,49.90
2018-03-30T13:26:51.342Z,50.50
2018-03-30T13:29:20.582Z,53.50
2018-03-30T13:31:48.960Z,53.40
2018-03-30T13:34:17.312Z,53.30
2018-03-30T13:36:45.785Z,55.60
2018-03-30T13:39:14.919Z,51.80
2018-03-30T13:41:43.276Z,51.70
2018-03-30T13:44:11.631Z,50.60
2018-03-30T13:46:40.872Z,47.80
2018-03-30T13:49:09.388Z,47.30
2018-03-30T13:51:48.629Z,50.80
2018-03-30T13:54:17.894Z,50.10
2018-03-30T13:56:50.642Z,47.80
2018-03-30T13:59:21.813Z,47.20
2018-03-30T14:02:00.882Z,46.60
2018-03-30T14:10:33.416Z,45.20
2018-03-30T14:13:01.764Z,45.90
2018-03-30T14:15:34.685Z,45.00
2018-03-30T14:18:09.761Z,43.90
2018-03-30T14:20:44.554Z,44.40
2018-03-30T14:23:15.320Z,43.70
2018-03-30T14:25:45.394Z,43.50
2018-03-30T14:28:20.196Z,43.60
2018-03-30T14:30:53.992Z,42.70
2018-03-30T14:33:22.463Z,43.60
2018-03-30T14:38:53.419Z,45.80
2018-03-30T14:41:21.789Z,45.20
2018-03-30T14:44:00.945Z,46.20
2018-03-30T14:46:37.771Z,46.10
2018-03-30T14:49:20.578Z,48.10
2018-03-30T14:54:49.525Z,48.30
2018-03-30T14:57:20.483Z,49.70
2018-03-30T14:59:53.440Z,49.70
2018-03-30T15:05:54.085Z,51.40
2018-03-30T15:08:34.133Z,53.30
2018-03-30T15:11:10.861Z,52.50
2018-03-30T15:13:52.656Z,52.40
2018-03-30T15:16:30.046Z,52.70
2018-03-30T15:19:01.248Z,53.30
2018-03-30T15:21:30.396Z,58.00
2018-03-30T15:24:14.425Z,57.30
2018-03-30T15:26:48.347Z,58.70
2018-03-30T15:29:21.214Z,59.60
2018-03-30T15:32:00.854Z,60.30
2018-03-30T15:34:42.869Z,63.00
2018-03-30T15:37:16.329Z,66.70
2018-03-30T15:42:47.942Z,69.30
2018-03-30T15:45:17.214Z,70.70
2018-03-30T15:47:45.565Z,71.70
2018-03-30T15:50:13.937Z,72.70
2018-03-30T15:52:43.206Z,73.80
2018-03-30T15:55:11.551Z,75.00
2018-03-30T15:57:39.959Z,76.30
2018-03-30T16:00:09.028Z,76.60
2018-03-30T16:02:37.385Z,77.30
2018-03-30T16:05:05.804Z,77.60
2018-03-30T16:07:34.165Z,78.70
2018-03-30T16:10:16.184Z,79.00
2018-03-30T16:12:46.351Z,79.40
2018-03-30T16:15:14.790Z,80.10
2018-03-30T16:17:43.176Z,80.20
2018-03-30T16:20:11.033Z,80.70
2018-03-30T16:22:38.909Z,80.50
2018-03-30T16:25:06.787Z,80.00
2018-03-30T16:27:34.660Z,81.40
2018-03-30T16:30:02.641Z,81.50
2018-03-30T16:32:30.498Z,81.60
2018-03-30T16:34:58.422Z,82.10
2018-03-30T16:37:26.321Z,82.60
2018-03-30T16:39:54.176Z,83.10
2018-03-30T16:42:22.039Z,83.80
2018-03-30T16:44:49.913Z,83.90
2018-03-30T16:47:17.769Z,84.30
2018-03-30T16:49:45.636Z,83.90
2018-03-30T16:52:13.518Z,84.00
2018-03-30T16:54:41.373Z,84.50
2018-03-30T16:57:09.227Z,84.70
2018-03-30T16:59:37.178Z,85.20
2018-03-30T17:02:04.971Z,85.90
2018-03-30T17:04:32.851Z,86.90
2018-03-30T17:07:00.816Z,87.00
2018-03-30T17:09:28.684Z,87.30
2018-03-30T17:11:56.533Z,87.30
2018-03-30T17:14:24.463Z,88.00
2018-03-30T17:16:52.392Z,88.10
2018-03-30T17:19:20.261Z,88.60
2018-03-30T17:21:48.140Z,89.00
2018-03-30T17:24:16.011Z,89.50
2018-03-30T17:26:43.863Z,89.60
2018-03-30T17:29:11.712Z,89.70
2018-03-30T17:31:39.549Z,89.60
2018-03-30T17:34:07.508Z,89.90
2018-03-30T17:36:35.347Z,90.00
2018-03-30T17:39:03.225Z,89.80
2018-03-30T17:41:31.071Z,90.00
2018-03-30T17:43:59.001Z,90.20
2018-03-30T17:46:26.859Z,90.30
2018-03-30T17:48:54.774Z,90.50
2018-03-30T17:51:22.659Z,90.50
2018-03-30T17:53:50.634Z,90.50
2018-03-30T17:56:18.481Z,90.80
2018-03-30T17:58:46.349Z,91.10
2018-03-30T18:01:14.219Z,91.40
2018-03-30T18:03:42.128Z,91.70
2018-03-30T18:06:11.018Z,92.90
2018-03-30T18:08:38.820Z,92.80
2018-03-30T18:11:06.677Z,93.20
2018-03-30T18:13:34.573Z,93.40
2018-03-30T18:16:02.421Z,93.60
2018-03-30T18:18:30.490Z,93.70
2018-03-30T18:20:58.323Z,93.90
2018-03-30T18:23:26.188Z,93.90
2018-03-30T18:25:54.316Z,94.20
2018-03-30T18:28:22.819Z,94.40
2018-03-30T18:30:51.141Z,94.40
2018-03-30T18:33:19.008Z,94.40
2018-03-30T18:35:47.123Z,94.60
2018-03-30T18:38:16.239Z,95.20
2018-03-30T18:40:44.121Z,94.90
2018-03-30T18:43:12.026Z,95.00
2018-03-30T18:45:39.912Z,95.00
2018-03-30T18:48:07.934Z,95.10
2018-03-30T18:50:35.997Z,95.20
2018-03-30T18:53:03.877Z,95.10
2018-03-30T18:55:31.809Z,94.90
2018-03-30T18:57:59.773Z,95.00
2018-03-30T19:00:27.713Z,95.10
2018-03-30T19:02:56.415Z,95.10
2018-03-30T19:05:24.247Z,95.00
2018-03-30T19:07:52.864Z,95.30
2018-03-30T19:10:20.710Z,95.30
2018-03-30T19:12:49.366Z,95.70
2018-03-30T19:15:17.221Z,95.70
2018-03-30T19:17:45.055Z,95.80
2018-03-30T19:20:12.926Z,95.90
2018-03-30T19:22:40.797Z,96.20
2018-03-30T19:25:08.685Z,96.30
2018-03-30T19:27:36.580Z,96.50
2018-03-30T19:30:04.441Z,96.70
2018-03-30T19:32:32.297Z,97.10
2018-03-30T19:35:00.192Z,96.80
2018-03-30T19:37:28.838Z,97.30
2018-03-30T19:39:56.691Z,97.00
2018-03-30T19:42:25.171Z,97.00
2018-03-30T19:44:53.009Z,97.10
2018-03-30T19:47:21.739Z,97.00
2018-03-30T19:49:49.830Z,97.00
2018-03-30T19:52:17.665Z,97.10
2018-03-30T19:54:45.535Z,97.10
2018-03-30T19:57:13.615Z,97.00
2018-03-30T19:59:41.532Z,97.20
2018-03-30T20:02:10.146Z,97.20
2018-03-30T20:04:37.994Z,97.20
2018-03-30T20:07:06.701Z,97.40
2018-03-30T20:09:34.532Z,97.40
2018-03-30T20:12:03.183Z,98.00
2018-03-30T20:14:31.031Z,97.60
2018-03-30T20:16:58.868Z,97.80
2018-03-30T20:19:27.485Z,97.90
2018-03-30T20:21:55.350Z,97.90
2018-03-30T20:24:23.181Z,97.90
2018-03-30T20:26:51.901Z,98.00
2018-03-30T20:29:19.786Z,97.90
2018-03-30T20:31:47.744Z,98.00
2018-03-30T20:34:15.595Z,98.00
2018-03-30T20:36:43.462Z,98.10
2018-03-30T20:39:11.338Z,98.10
2018-03-30T20:41:39.204Z,98.10
2018-03-30T20:44:07.064Z,98.10
2018-03-30T20:46:34.919Z,98.10
2018-03-30T20:49:02.780Z,98.20
2018-03-30T20:51:30.621Z,98.20
2018-03-30T20:53:58.485Z,98.10
2018-03-30T20:56:26.433Z,98.10
2018-03-30T20:58:54.340Z,98.00
2018-03-30T21:01:22.952Z,98.00
2018-03-30T21:03:50.833Z,98.00
2018-03-30T21:06:18.691Z,97.90
2018-03-30T21:08:46.556Z,97.80
2018-03-30T21:11:14.396Z,97.60
2018-03-30T21:13:43.120Z,97.40
2018-03-30T21:16:10.964Z,97.50
2018-03-30T21:18:38.879Z,97.50
2018-03-30T21:21:06.724Z,97.60
2018-03-30T21:23:34.574Z,97.40
2018-03-30T21:26:02.644Z,97.50
2018-03-30T21:28:30.516Z,97.50
2018-03-30T21:30:58.396Z,97.50
2018-03-30T21:33:26.250Z,97.50
2018-03-30T21:35:54.117Z,97.50
2018-03-30T21:38:21.963Z,97.50
2018-03-30T21:40:50.592Z,97.40
2018-03-30T21:43:18.484Z,97.30
2018-03-30T21:45:46.312Z,97.40
2018-03-30T21:48:14.183Z,97.40
2018-03-30T21:50:42.040Z,97.60
2018-03-30T21:53:09.924Z,97.20
2018-03-30T21:55:37.763Z,97.30
2018-03-30T21:58:05.613Z,97.40
2018-03-30T22:00:34.346Z,97.60
2018-03-30T22:03:02.179Z,97.60
2018-03-30T22:05:30.092Z,97.50
2018-03-30T22:07:57.932Z,97.60
2018-03-30T22:10:25.788Z,97.60
2018-03-30T22:12:53.677Z,97.60
2018-03-30T22:15:21.533Z,97.70
2018-03-30T22:17:49.355Z,97.80
2018-03-30T22:20:17.242Z,97.80
2018-03-30T22:22:45.859Z,98.00
2018-03-30T22:25:13.717Z,97.90
2018-03-30T22:27:41.597Z,97.90
2018-03-30T22:30:09.465Z,97.90
2018-03-30T22:32:37.313Z,97.90
2018-03-30T22:35:05.204Z,97.80
2018-03-30T22:37:33.080Z,98.00
2018-03-30T22:40:00.968Z,98.10
2018-03-30T22:42:28.810Z,98.10
2018-03-30T22:44:56.673Z,98.10
2018-03-30T22:47:24.533Z,98.30
2018-03-30T22:49:52.377Z,98.30
2018-03-30T22:52:20.275Z,98.40
2018-03-30T22:54:48.135Z,98.30
2018-03-30T22:57:16.006Z,98.30
2018-03-30T22:59:43.847Z,98.40
2018-03-30T23:02:11.697Z,98.40
2018-03-30T23:04:40.372Z,98.60
2018-03-30T23:07:08.225Z,98.50
2018-03-30T23:09:36.211Z,98.40
2018-03-30T23:12:04.054Z,98.40
2018-03-30T23:14:31.889Z,98.40
2018-03-30T23:16:59.747Z,98.40
2018-03-30T23:19:27.591Z,98.50
2018-03-30T23:21:56.205Z,98.50
2018-03-30T23:24:24.091Z,98.40
2018-03-30T23:26:51.963Z,98.60
2018-03-30T23:29:19.813Z,98.20
2018-03-30T23:31:47.680Z,98.10
2018-03-30T23:34:15.545Z,98.30
2018-03-30T23:36:43.383Z,98.20
2018-03-30T23:39:12.011Z,98.30
2018-03-30T23:41:39.857Z,98.30
2018-03-30T23:44:07.841Z,98.30
2018-03-30T23:46:35.679Z,98.20
2018-03-30T23:49:03.526Z,98.20
2018-03-30T23:51:32.244Z,98.40
2018-03-30T23:54:00.093Z,98.40
2018-03-30T23:56:28.814Z,98.40
2018-03-30T23:58:56.665Z,98.40
